Time;durP1;ratioP1;P1;durP2;ratioP2;P2;SDS_P1;SDS_P2;PMS_P1;PMS_P2;Temp;Humidity;BMP_temperature;BMP_pressure;BME280_temperature;BME280_humidity;BME280_pressure;Samples;Min_cycle;Max_cycle;Signal;HPM_P1;HPM_P2
2022/03/10 00:01:44;;;;;;;;;;;7.00;93.90;;;;;;5091319;28;20401;-74
2022/03/10 00:04:10;;;;;;;;;;;7.00;93.80;;;;;;5091357;28;19962;-74
2022/03/10 00:06:36;;;;;;;;;;;7.00;93.80;;;;;;5089757;28;19919;-74
2022/03/10 00:09:02;;;;;;;;;;;7.00;93.90;;;;;;5091257;28;19977;-74
2022/03/10 00:11:28;;;;;;;;;;;7.00;93.80;;;;;;5091128;28;20354;-74
2022/03/10 00:13:53;;;;;;;;;;;7.10;93.80;;;;;;5091018;28;19923;-74
2022/03/10 00:16:19;;;;;;;;;;;7.10;93.70;;;;;;5090796;28;19920;-74
2022/03/10 00:18:44;;;;;;;;;;;7.10;93.70;;;;;;5090059;28;20439;-74
2022/03/10 00:21:10;;;;;;;;;;;7.00;93.90;;;;;;5090368;28;20298;-74
2022/03/10 00:23:35;;;;;;;;;;;6.90;93.70;;;;;;5090939;28;20310;-74
2022/03/10 00:26:01;;;;;;;;;;;6.90;93.80;;;;;;5090649;28;19988;-74
2022/03/10 00:28:27;;;;;;;;;;;6.90;93.90;;;;;;5090641;28;20385;-75
2022/03/10 00:30:52;;;;;;;;;;;7.00;93.90;;;;;;5090748;28;20022;-75
2022/03/10 00:33:18;;;;;;;;;;;7.10;93.80;;;;;;5090493;28;19916;-74
2022/03/10 00:35:44;;;;;;;;;;;7.10;93.70;;;;;;5090473;28;20271;-74
2022/03/10 00:38:09;;;;;;;;;;;7.20;93.60;;;;;;5090675;28;20355;-74
2022/03/10 00:40:35;;;;;;;;;;;7.20;93.60;;;;;;5090589;28;19908;-75
2022/03/10 00:43:00;;;;;;;;;;;7.20;93.60;;;;;;5090645;28;20014;-74
2022/03/10 00:45:26;;;;;;;;;;;7.20;93.60;;;;;;5090438;28;19971;-74
2022/03/10 00:47:52;;;;;;;;;;;7.20;93.70;;;;;;5090314;28;19974;-74
2022/03/10 00:50:17;;;;;;;;;;;7.30;93.70;;;;;;5090499;28;20369;-75
2022/03/10 00:52:44;;;;;;;;;;;7.30;93.70;;;;;;5090303;28;20361;-74
2022/03/10 00:55:10;;;;;;;;;;;7.40;93.80;;;;;;5090406;28;20305;-75
2022/03/10 00:57:36;;;;;;;;;;;7.40;93.60;;;;;;5090090;28;20287;-74
2022/03/10 01:00:03;;;;;;;;;;;7.40;93.50;;;;;;5090240;28;19908;-74
2022/03/10 01:02:32;;;;;;;;;;;7.40;93.50;;;;;;5090219;28;19908;-75
2022/03/10 01:04:58;;;;;;;;;;;7.40;93.50;;;;;;5090201;28;20222;-74
2022/03/10 01:07:23;;;;;;;;;;;7.30;93.50;;;;;;5089873;28;19914;-74
2022/03/10 01:09:49;;;;;;;;;;;7.40;93.60;;;;;;5090008;28;19970;-74
2022/03/10 01:12:15;;;;;;;;;;;7.40;93.50;;;;;;5089889;28;19916;-74
2022/03/10 01:14:40;;;;;;;;;;;7.40;93.50;;;;;;5089982;28;20343;-74
2022/03/10 01:17:06;;;;;;;;;;;7.40;93.60;;;;;;5089838;28;19908;-75
2022/03/10 01:19:32;;;;;;;;;;;7.40;93.60;;;;;;5088511;28;19912;-75
2022/03/10 01:21:57;;;;;;;;;;;7.40;93.60;;;;;;5089813;28;19912;-74
2022/03/10 01:24:23;;;;;;;;;;;7.40;93.60;;;;;;5089773;28;19961;-74
2022/03/10 01:26:49;;;;;;;;;;;7.40;93.60;;;;;;5089681;28;19915;-74
2022/03/10 01:29:14;;;;;;;;;;;7.50;93.60;;;;;;5088432;28;20362;-74
2022/03/10 01:31:40;;;;;;;;;;;7.50;93.50;;;;;;5089581;28;20006;-74
2022/03/10 01:34:06;;;;;;;;;;;7.50;93.60;;;;;;5088012;28;20306;-74
2022/03/10 01:36:31;;;;;;;;;;;7.50;93.60;;;;;;5089567;28;20026;-74
2022/03/10 01:38:57;;;;;;;;;;;7.40;93.50;;;;;;5089457;28;19916;-74
2022/03/10 01:41:23;;;;;;;;;;;7.40;93.50;;;;;;5089349;28;19918;-75
2022/03/10 01:43:56;;;;;;;;;;;7.40;93.60;;;;;;5071315;28;19919;-74
2022/03/10 01:46:21;;;;;;;;;;;7.40;93.60;;;;;;5087870;28;19923;-74
2022/03/10 01:48:48;;;;;;;;;;;7.40;93.60;;;;;;5089220;28;19916;-74
2022/03/10 01:51:13;;;;;;;;;;;7.40;93.60;;;;;;5089250;28;19957;-74
2022/03/10 01:53:40;;;;;;;;;;;7.40;93.60;;;;;;5089300;28;19916;-74
2022/03/10 01:56:05;;;;;;;;;;;7.50;93.60;;;;;;5088996;28;19938;-74
2022/03/10 01:58:31;;;;;;;;;;;7.50;93.60;;;;;;5089170;28;19916;-75
2022/03/10 02:00:57;;;;;;;;;;;7.50;93.50;;;;;;5089014;28;19938;-74
2022/03/10 02:03:22;;;;;;;;;;;7.60;93.50;;;;;;5089027;28;19932;-74
2022/03/10 02:05:48;;;;;;;;;;;7.60;93.50;;;;;;5088901;28;19920;-74
2022/03/10 02:10:58;;;;;;;;;;;7.60;93.50;;;;;;5088215;28;20046;-74
2022/03/10 02:13:23;;;;;;;;;;;7.60;93.40;;;;;;5087548;28;20006;-74
2022/03/10 02:18:33;;;;;;;;;;;7.60;93.50;;;;;;5088889;28;20409;-74
2022/03/10 02:20:59;;;;;;;;;;;7.60;93.40;;;;;;5088664;28;19943;-75
2022/03/10 02:23:25;;;;;;;;;;;7.50;93.40;;;;;;5088642;28;19919;-74
2022/03/10 02:25:50;;;;;;;;;;;7.50;93.50;;;;;;5088424;28;19923;-74
2022/03/10 02:28:17;;;;;;;;;;;7.50;93.50;;;;;;5088551;28;20118;-74
2022/03/10 02:30:42;;;;;;;;;;;7.50;93.50;;;;;;5088750;28;20033;-75
2022/03/10 02:33:08;;;;;;;;;;;7.50;93.50;;;;;;5088473;28;20022;-74
2022/03/10 02:35:34;;;;;;;;;;;7.60;93.40;;;;;;5088389;28;19925;-75
2022/03/10 02:37:59;;;;;;;;;;;7.60;93.30;;;;;;5088397;28;20003;-75
2022/03/10 02:40:26;;;;;;;;;;;7.60;93.20;;;;;;5088351;28;19916;-74
2022/03/10 02:42:51;;;;;;;;;;;7.60;93.20;;;;;;5087661;28;19915;-74
2022/03/10 02:45:17;;;;;;;;;;;7.70;93.20;;;;;;5088391;28;19930;-74
2022/03/10 02:47:42;;;;;;;;;;;7.60;93.10;;;;;;5088188;28;19923;-74
2022/03/10 02:50:09;;;;;;;;;;;7.60;93.10;;;;;;5088305;28;20263;-74
2022/03/10 02:52:35;;;;;;;;;;;7.50;93.10;;;;;;5088352;28;19947;-74
2022/03/10 02:55:02;;;;;;;;;;;7.50;93.10;;;;;;5088320;28;19908;-74
2022/03/10 02:57:29;;;;;;;;;;;7.50;93.20;;;;;;5086845;28;19969;-74
2022/03/10 02:59:54;;;;;;;;;;;7.40;93.20;;;;;;5086866;28;19912;-74
2022/03/10 03:02:20;;;;;;;;;;;7.40;93.20;;;;;;5088252;28;19973;-75
2022/03/10 03:04:45;;;;;;;;;;;7.30;93.20;;;;;;5088164;28;19916;-74
2022/03/10 03:07:11;;;;;;;;;;;7.30;93.30;;;;;;5087914;28;19916;-74
2022/03/10 03:09:36;;;;;;;;;;;7.30;93.30;;;;;;5088083;28;19937;-74
2022/03/10 03:12:02;;;;;;;;;;;7.30;93.30;;;;;;5086943;28;19912;-75
2022/03/10 03:14:27;;;;;;;;;;;7.20;93.40;;;;;;5088120;28;19966;-75
2022/03/10 03:16:57;;;;;;;;;;;7.10;93.30;;;;;;5087925;28;19922;-75
2022/03/10 03:19:23;;;;;;;;;;;7.10;93.40;;;;;;5088071;28;19916;-75
2022/03/10 03:21:48;;;;;;;;;;;7.00;93.40;;;;;;5088168;28;20319;-75
2022/03/10 03:24:14;;;;;;;;;;;7.00;93.40;;;;;;5087956;28;20011;-74
2022/03/10 03:26:40;;;;;;;;;;;7.00;93.50;;;;;;5087939;28;20274;-75
2022/03/10 03:29:05;;;;;;;;;;;7.00;93.50;;;;;;5087721;28;19935;-74
2022/03/10 03:31:31;;;;;;;;;;;7.00;93.50;;;;;;5087877;28;20323;-75
2022/03/10 03:33:56;;;;;;;;;;;7.10;93.50;;;;;;5087762;28;20425;-75
2022/03/10 03:36:22;;;;;;;;;;;7.10;93.50;;;;;;5087881;28;20358;-75
2022/03/10 03:38:47;;;;;;;;;;;7.10;93.50;;;;;;5086621;28;19995;-74
2022/03/10 03:41:13;;;;;;;;;;;7.10;93.50;;;;;;5087807;28;20390;-75
2022/03/10 03:43:39;;;;;;;;;;;7.10;93.50;;;;;;5087826;28;20388;-75
2022/03/10 03:46:04;;;;;;;;;;;7.10;93.50;;;;;;5087796;28;19931;-75
2022/03/10 03:48:30;;;;;;;;;;;7.00;93.50;;;;;;5087709;28;20336;-75
2022/03/10 03:50:55;;;;;;;;;;;7.00;93.60;;;;;;5086472;28;20274;-75
2022/03/10 03:53:21;;;;;;;;;;;6.90;93.50;;;;;;5088012;28;19920;-75
2022/03/10 03:55:46;;;;;;;;;;;6.90;93.60;;;;;;5091371;28;19918;-75
2022/03/10 03:58:12;;;;;;;;;;;6.90;93.60;;;;;;5091472;28;19974;-75
2022/03/10 04:00:38;;;;;;;;;;;6.80;93.60;;;;;;5091359;28;19919;-75
2022/03/10 04:03:08;;;;;;;;;;;6.80;93.70;;;;;;5091356;28;19912;-75
2022/03/10 04:05:34;;;;;;;;;;;6.80;93.70;;;;;;5090003;28;19912;-74
2022/03/10 04:07:59;;;;;;;;;;;6.80;93.70;;;;;;5091081;28;19961;-75
2022/03/10 04:10:25;;;;;;;;;;;6.80;93.80;;;;;;5072989;28;19963;-74
2022/03/10 04:12:50;;;;;;;;;;;6.80;94.00;;;;;;5091203;28;19916;-75
2022/03/10 04:15:16;;;;;;;;;;;6.80;93.80;;;;;;5089841;28;20327;-74
2022/03/10 04:17:42;;;;;;;;;;;6.70;93.80;;;;;;5091030;28;19935;-74
2022/03/10 04:20:12;;;;;;;;;;;6.80;93.80;;;;;;5091083;28;20378;-75
2022/03/10 04:22:38;;;;;;;;;;;6.70;93.70;;;;;;5091006;28;19913;-75
2022/03/10 04:25:05;;;;;;;;;;;6.80;93.80;;;;;;5090972;28;19912;-74
2022/03/10 04:27:31;;;;;;;;;;;6.80;93.80;;;;;;5089559;28;20397;-75
2022/03/10 04:29:56;;;;;;;;;;;6.80;93.80;;;;;;5090945;28;19912;-75
2022/03/10 04:32:22;;;;;;;;;;;6.80;93.80;;;;;;5090997;28;19975;-75
2022/03/10 04:34:47;;;;;;;;;;;6.80;93.80;;;;;;5090593;28;19920;-75
2022/03/10 04:37:13;;;;;;;;;;;6.80;93.80;;;;;;5090513;28;19958;-75
2022/03/10 04:39:39;;;;;;;;;;;6.70;93.80;;;;;;5090703;28;19920;-75
2022/03/10 04:42:04;;;;;;;;;;;6.70;93.80;;;;;;5090951;28;19912;-75
2022/03/10 04:44:30;;;;;;;;;;;6.70;93.80;;;;;;5090624;28;19910;-75
2022/03/10 04:46:56;;;;;;;;;;;6.70;93.80;;;;;;5090448;28;19916;-75
2022/03/10 04:49:21;;;;;;;;;;;6.60;93.80;;;;;;5090482;28;19955;-74
2022/03/10 04:51:47;;;;;;;;;;;6.60;93.90;;;;;;5090421;28;19961;-74
2022/03/10 04:54:12;;;;;;;;;;;6.60;93.90;;;;;;5090368;28;20016;-75
2022/03/10 04:56:38;;;;;;;;;;;6.50;94.00;;;;;;5090305;28;19908;-75
2022/03/10 04:59:03;;;;;;;;;;;6.60;94.00;;;;;;5090266;28;19999;-75
2022/03/10 05:01:29;;;;;;;;;;;6.60;94.00;;;;;;5090084;28;19955;-74
2022/03/10 05:03:55;;;;;;;;;;;6.60;94.00;;;;;;5089995;28;20377;-74
2022/03/10 05:06:22;;;;;;;;;;;6.60;93.90;;;;;;5087945;28;20003;-74
2022/03/10 05:08:48;;;;;;;;;;;6.70;93.90;;;;;;5090151;28;20090;-74
2022/03/10 05:11:13;;;;;;;;;;;6.60;94.00;;;;;;5089998;28;20024;-74
2022/03/10 05:13:40;;;;;;;;;;;6.60;94.00;;;;;;5090123;28;19908;-74
2022/03/10 05:16:05;;;;;;;;;;;6.70;94.00;;;;;;5089847;28;19908;-75
2022/03/10 05:18:31;;;;;;;;;;;6.70;94.00;;;;;;5089810;28;19916;-75
2022/03/10 05:20:56;;;;;;;;;;;6.70;93.90;;;;;;5089873;28;19923;-75
2022/03/10 05:23:22;;;;;;;;;;;6.70;93.90;;;;;;5088436;28;19912;-74
2022/03/10 05:25:48;;;;;;;;;;;6.80;94.00;;;;;;5089812;28;19912;-74
2022/03/10 05:28:14;;;;;;;;;;;6.80;94.00;;;;;;5089653;28;19916;-74
2022/03/10 05:30:40;;;;;;;;;;;6.70;94.00;;;;;;5089720;28;19915;-75
2022/03/10 05:33:06;;;;;;;;;;;6.70;94.00;;;;;;5088263;28;19912;-75
2022/03/10 05:35:32;;;;;;;;;;;6.70;94.10;;;;;;5088102;28;19931;-74
2022/03/10 05:37:59;;;;;;;;;;;6.70;94.10;;;;;;5089555;28;19908;-75
2022/03/10 05:40:24;;;;;;;;;;;6.60;94.20;;;;;;5089657;28;20040;-74
2022/03/10 05:42:54;;;;;;;;;;;6.60;94.30;;;;;;5089440;28;20007;-75
2022/03/10 05:45:20;;;;;;;;;;;6.50;94.40;;;;;;5089463;28;19943;-75
2022/03/10 05:47:46;;;;;;;;;;;6.50;94.50;;;;;;5089112;28;19944;-74
2022/03/10 05:50:12;;;;;;;;;;;6.50;94.60;;;;;;5089118;28;20313;-74
2022/03/10 05:52:38;;;;;;;;;;;6.40;94.60;;;;;;5089328;28;19961;-74
2022/03/10 05:55:05;;;;;;;;;;;6.40;94.60;;;;;;5089378;28;19912;-75
2022/03/10 05:57:30;;;;;;;;;;;6.40;94.70;;;;;;5089128;28;19952;-74
2022/03/10 05:59:56;;;;;;;;;;;6.40;94.80;;;;;;5089177;28;19918;-74
2022/03/10 06:02:22;;;;;;;;;;;6.40;94.80;;;;;;5089128;28;19908;-75
2022/03/10 06:04:47;;;;;;;;;;;6.40;94.90;;;;;;5087609;28;20183;-74
2022/03/10 06:07:13;;;;;;;;;;;6.40;94.90;;;;;;5089013;28;19952;-74
2022/03/10 06:09:38;;;;;;;;;;;6.40;95.00;;;;;;5088773;28;20355;-74
2022/03/10 06:12:04;;;;;;;;;;;6.40;95.00;;;;;;5088883;28;19920;-74
2022/03/10 06:14:30;;;;;;;;;;;6.40;95.10;;;;;;5088884;28;19910;-74
2022/03/10 06:16:55;;;;;;;;;;;6.40;95.10;;;;;;5088737;28;19908;-74
2022/03/10 06:19:21;;;;;;;;;;;6.40;95.20;;;;;;5088796;28;19919;-74
2022/03/10 06:21:47;;;;;;;;;;;6.40;95.30;;;;;;5088724;28;20277;-74
2022/03/10 06:24:13;;;;;;;;;;;6.30;95.30;;;;;;5088728;28;19916;-74
2022/03/10 06:26:38;;;;;;;;;;;6.30;95.30;;;;;;5087436;28;19918;-74
2022/03/10 06:29:04;;;;;;;;;;;6.30;95.50;;;;;;5088803;28;20069;-74
2022/03/10 06:31:30;;;;;;;;;;;6.30;95.50;;;;;;5088408;28;19909;-74
2022/03/10 06:33:57;;;;;;;;;;;6.20;95.60;;;;;;5086955;28;19908;-74
2022/03/10 06:36:23;;;;;;;;;;;6.20;95.60;;;;;;5087109;28;19916;-75
2022/03/10 06:38:48;;;;;;;;;;;6.20;95.70;;;;;;5088644;28;20330;-74
2022/03/10 06:41:14;;;;;;;;;;;6.20;95.70;;;;;;5087258;28;20009;-74
2022/03/10 06:43:40;;;;;;;;;;;6.20;95.80;;;;;;5088317;28;19908;-74
2022/03/10 06:46:05;;;;;;;;;;;6.20;95.80;;;;;;5088202;28;19959;-74
2022/03/10 06:48:31;;;;;;;;;;;6.10;95.90;;;;;;5087914;28;19939;-74
2022/03/10 06:50:57;;;;;;;;;;;6.10;96.00;;;;;;5087904;28;19923;-74
2022/03/10 06:53:22;;;;;;;;;;;6.10;96.00;;;;;;5088032;28;19918;-75
2022/03/10 06:55:48;;;;;;;;;;;6.10;96.00;;;;;;5087970;28;19962;-74
2022/03/10 06:58:13;;;;;;;;;;;6.10;96.00;;;;;;5087814;28;19932;-74
2022/03/10 07:00:39;;;;;;;;;;;6.10;96.30;;;;;;5087783;28;19907;-74
2022/03/10 07:03:04;;;;;;;;;;;6.00;96.00;;;;;;5088373;28;19919;-75
2022/03/10 07:05:30;;;;;;;;;;;6.00;96.00;;;;;;5087915;28;20007;-73
2022/03/10 07:07:56;;;;;;;;;;;6.00;96.00;;;;;;5087689;28;20396;-71
2022/03/10 07:10:21;;;;;;;;;;;6.00;96.10;;;;;;5088044;28;19916;-74
2022/03/10 07:12:47;;;;;;;;;;;6.00;96.20;;;;;;5087951;28;19928;-74
2022/03/10 07:15:13;;;;;;;;;;;6.10;96.30;;;;;;5087780;28;19915;-73
2022/03/10 07:17:39;;;;;;;;;;;6.10;96.30;;;;;;5087758;28;19963;-74
2022/03/10 07:20:04;;;;;;;;;;;6.10;96.30;;;;;;5087976;28;20045;-74
2022/03/10 07:22:30;;;;;;;;;;;6.20;96.40;;;;;;5087755;28;20363;-74
2022/03/10 07:24:55;;;;;;;;;;;6.30;96.40;;;;;;5088043;28;19908;-74
2022/03/10 07:27:21;;;;;;;;;;;6.40;96.40;;;;;;5087701;28;19939;-74
2022/03/10 07:29:47;;;;;;;;;;;6.40;96.40;;;;;;5090727;28;19970;-74
2022/03/10 07:32:12;;;;;;;;;;;6.40;96.40;;;;;;5091679;28;19916;-74
2022/03/10 07:34:38;;;;;;;;;;;6.50;96.40;;;;;;5091002;28;20390;-63
2022/03/10 07:37:04;;;;;;;;;;;6.60;96.40;;;;;;5089754;28;19981;-74
2022/03/10 07:39:29;;;;;;;;;;;6.60;96.50;;;;;;5090022;28;19913;-74
2022/03/10 07:41:55;;;;;;;;;;;6.70;96.50;;;;;;5091432;28;19974;-74
2022/03/10 07:44:20;;;;;;;;;;;6.70;96.50;;;;;;5090318;28;19981;-74
2022/03/10 07:46:46;;;;;;;;;;;6.80;96.50;;;;;;5090147;28;20358;-74
2022/03/10 07:49:12;;;;;;;;;;;6.90;96.50;;;;;;5091489;28;19973;-74
2022/03/10 07:51:39;;;;;;;;;;;7.00;96.50;;;;;;5089933;28;19911;-74
2022/03/10 07:54:04;;;;;;;;;;;7.00;96.50;;;;;;5091326;28;19995;-74
2022/03/10 07:56:30;;;;;;;;;;;7.20;96.70;;;;;;5089703;28;20020;-74
2022/03/10 07:58:55;;;;;;;;;;;7.30;96.50;;;;;;5090998;28;19908;-74
2022/03/10 08:01:21;;;;;;;;;;;7.40;96.30;;;;;;5090910;28;19916;-73
2022/03/10 08:03:47;;;;;;;;;;;7.40;96.10;;;;;;5090933;28;19919;-74
2022/03/10 08:06:12;;;;;;;;;;;7.30;96.00;;;;;;5091084;28;19916;-74
2022/03/10 08:08:38;;;;;;;;;;;7.30;96.20;;;;;;5090833;28;20026;-75
2022/03/10 08:11:06;;;;;;;;;;;7.50;96.60;;;;;;5089550;28;19919;-74
2022/03/10 08:13:32;;;;;;;;;;;7.80;96.60;;;;;;5090679;28;19912;-74
2022/03/10 08:15:58;;;;;;;;;;;7.90;96.30;;;;;;5090821;28;19912;-74
2022/03/10 08:18:24;;;;;;;;;;;8.00;96.00;;;;;;5090764;28;19908;-73
2022/03/10 08:20:50;;;;;;;;;;;8.10;95.90;;;;;;5090707;28;20281;-74
2022/03/10 08:23:18;;;;;;;;;;;8.10;95.80;;;;;;5090741;28;19947;-74
2022/03/10 08:25:44;;;;;;;;;;;8.00;95.60;;;;;;5089317;28;20274;-74
2022/03/10 08:28:10;;;;;;;;;;;8.00;95.40;;;;;;5090263;28;19919;-74
2022/03/10 08:30:35;;;;;;;;;;;8.00;95.60;;;;;;5090464;28;20065;-74
2022/03/10 08:33:01;;;;;;;;;;;8.20;96.00;;;;;;5091069;28;19930;-74
2022/03/10 08:35:27;;;;;;;;;;;8.60;96.30;;;;;;5090141;28;19928;-74
2022/03/10 08:37:52;;;;;;;;;;;9.50;96.90;;;;;;5088801;28;19947;-74
2022/03/10 08:40:19;;;;;;;;;;;10.60;96.60;;;;;;5088964;28;20426;-74
2022/03/10 08:42:46;;;;;;;;;;;11.20;94.60;;;;;;5090003;28;19918;-74
2022/03/10 08:45:12;;;;;;;;;;;11.30;93.70;;;;;;5089980;28;20391;-74
2022/03/10 08:47:37;;;;;;;;;;;11.40;93.60;;;;;;5089892;28;19919;-74
2022/03/10 08:50:04;;;;;;;;;;;11.40;93.10;;;;;;5090091;28;20286;-74
2022/03/10 08:52:30;;;;;;;;;;;11.10;92.50;;;;;;5089545;28;20009;-74
2022/03/10 08:54:56;;;;;;;;;;;10.70;91.90;;;;;;5089415;28;20346;-74
2022/03/10 08:57:21;;;;;;;;;;;10.20;92.00;;;;;;5089323;28;19992;-74
2022/03/10 08:59:47;;;;;;;;;;;9.90;92.40;;;;;;5089731;28;19908;-74
2022/03/10 09:02:12;;;;;;;;;;;10.00;93.20;;;;;;5083150;28;19970;-73
2022/03/10 09:04:38;;;;;;;;;;;10.10;93.30;;;;;;5086992;28;19914;-74
2022/03/10 09:07:04;;;;;;;;;;;10.50;93.70;;;;;;5080110;28;19926;-75
2022/03/10 09:09:30;;;;;;;;;;;11.00;93.80;;;;;;5075051;28;19988;-75
2022/03/10 09:11:56;;;;;;;;;;;11.30;93.00;;;;;;5088486;28;19919;-75
2022/03/10 09:14:21;;;;;;;;;;;11.40;92.60;;;;;;5089144;28;19916;-74
2022/03/10 09:16:47;;;;;;;;;;;11.30;92.10;;;;;;5084543;28;19908;-74
2022/03/10 09:19:13;;;;;;;;;;;11.40;92.40;;;;;;5087965;28;19995;-73
2022/03/10 09:21:38;;;;;;;;;;;11.90;92.60;;;;;;5088736;28;19916;-74
2022/03/10 09:24:04;;;;;;;;;;;12.50;92.70;;;;;;5087454;28;19912;-74
2022/03/10 09:26:29;;;;;;;;;;;13.40;93.10;;;;;;5085576;28;19912;-75
2022/03/10 09:28:55;;;;;;;;;;;14.30;92.80;;;;;;5083396;28;20247;-75
2022/03/10 09:31:21;;;;;;;;;;;15.10;92.10;;;;;;5085188;28;20287;-75
2022/03/10 09:33:47;;;;;;;;;;;15.60;90.40;;;;;;5088165;28;20030;-74
2022/03/10 09:36:14;;;;;;;;;;;15.90;88.50;;;;;;5086246;28;20011;-75
2022/03/10 09:38:39;;;;;;;;;;;16.20;87.60;;;;;;5079791;28;19923;-74
2022/03/10 09:41:05;;;;;;;;;;;16.50;87.50;;;;;;5087710;28;19924;-74
2022/03/10 09:43:32;;;;;;;;;;;16.70;85.80;;;;;;5088300;28;19912;-75
2022/03/10 09:45:58;;;;;;;;;;;17.00;86.10;;;;;;5087920;28;19921;-74
2022/03/10 09:48:24;;;;;;;;;;;17.40;85.20;;;;;;5087659;28;19995;-74
2022/03/10 09:50:50;;;;;;;;;;;17.60;84.60;;;;;;5087891;28;19953;-73
2022/03/10 09:53:16;;;;;;;;;;;17.90;84.00;;;;;;5082257;28;19916;-72
2022/03/10 09:55:42;;;;;;;;;;;18.10;82.20;;;;;;5087463;28;20291;-75
2022/03/10 09:58:07;;;;;;;;;;;18.20;82.80;;;;;;5087203;28;19955;-74
2022/03/10 10:00:33;;;;;;;;;;;18.40;81.20;;;;;;5085920;28;19918;-72
2022/03/10 10:02:59;;;;;;;;;;;18.40;79.60;;;;;;5085538;28;19908;-73
2022/03/10 10:05:25;;;;;;;;;;;18.20;79.10;;;;;;5087008;28;19912;-72
2022/03/10 10:08:13;;;;;;;;;;;18.00;77.80;;;;;;5081557;28;20417;-72
2022/03/10 10:10:41;;;;;;;;;;;17.80;77.70;;;;;;5086748;28;20243;-73
2022/03/10 10:13:07;;;;;;;;;;;17.70;77.10;;;;;;5086607;28;20457;-74
2022/03/10 10:15:33;;;;;;;;;;;17.70;76.80;;;;;;5087751;28;19995;-73
2022/03/10 10:18:00;;;;;;;;;;;17.80;77.70;;;;;;5088322;28;19973;-73
2022/03/10 10:20:30;;;;;;;;;;;17.90;76.80;;;;;;5085898;28;19916;-74
2022/03/10 10:22:55;;;;;;;;;;;18.30;77.30;;;;;;5084285;28;19920;-73
2022/03/10 10:25:32;;;;;;;;;;;18.50;75.80;;;;;;5086584;28;19924;-73
2022/03/10 10:27:58;;;;;;;;;;;18.70;73.90;;;;;;5084870;28;19916;-74
2022/03/10 10:30:23;;;;;;;;;;;19.00;75.20;;;;;;5087316;28;19950;-74
2022/03/10 10:32:49;;;;;;;;;;;19.40;74.60;;;;;;5087155;28;20004;-74
2022/03/10 10:35:20;;;;;;;;;;;19.70;74.90;;;;;;5085746;28;19985;-74
2022/03/10 10:37:50;;;;;;;;;;;19.80;76.40;;;;;;5078893;28;19916;-74
2022/03/10 10:40:41;;;;;;;;;;;20.30;78.30;;;;;;5087241;28;20264;-73
2022/03/10 10:43:07;;;;;;;;;;;20.90;75.10;;;;;;5082169;28;19920;-72
2022/03/10 10:45:38;;;;;;;;;;;21.20;74.90;;;;;;5084817;28;19964;-75
2022/03/10 10:48:08;;;;;;;;;;;21.50;72.90;;;;;;5084508;28;20327;-74
2022/03/10 10:50:36;;;;;;;;;;;21.70;72.40;;;;;;5086577;28;19959;-73
2022/03/10 10:53:02;;;;;;;;;;;21.80;72.40;;;;;;5082667;28;19916;-73
2022/03/10 10:55:31;;;;;;;;;;;21.90;71.50;;;;;;5086779;28;19920;-73
2022/03/10 10:58:03;;;;;;;;;;;22.00;69.60;;;;;;5087200;28;20021;-73
2022/03/10 11:00:39;;;;;;;;;;;21.90;67.90;;;;;;5084367;28;19912;-68
2022/03/10 11:03:18;;;;;;;;;;;21.50;65.40;;;;;;5082784;28;19908;-71
2022/03/10 11:05:44;;;;;;;;;;;21.40;67.40;;;;;;5086567;28;20393;-71
2022/03/10 11:08:09;;;;;;;;;;;21.50;67.30;;;;;;5067819;28;19924;-69
2022/03/10 11:10:35;;;;;;;;;;;21.30;63.30;;;;;;5086602;28;19981;-68
2022/03/10 11:13:01;;;;;;;;;;;21.10;63.60;;;;;;5087162;28;19918;-69
2022/03/10 11:15:26;;;;;;;;;;;21.00;61.80;;;;;;5084804;28;19931;-71
2022/03/10 11:17:52;;;;;;;;;;;20.80;61.10;;;;;;5086743;28;19919;-72
2022/03/10 11:20:19;;;;;;;;;;;20.60;61.10;;;;;;5086494;28;19944;-73
2022/03/10 11:22:57;;;;;;;;;;;20.60;61.70;;;;;;5083440;28;19944;-73
2022/03/10 11:25:24;;;;;;;;;;;20.70;62.10;;;;;;5086758;28;19955;-72
2022/03/10 11:27:54;;;;;;;;;;;21.00;62.50;;;;;;5086222;28;20440;-72
2022/03/10 11:30:23;;;;;;;;;;;21.10;59.80;;;;;;5085245;28;19913;-74
2022/03/10 11:33:02;;;;;;;;;;;21.00;59.90;;;;;;5080009;28;20495;-73
2022/03/10 11:35:46;;;;;;;;;;;20.80;57.80;;;;;;5086602;28;19919;-72
2022/03/10 11:38:13;;;;;;;;;;;20.40;57.90;;;;;;5083958;28;19954;-75
2022/03/10 11:40:52;;;;;;;;;;;20.30;58.50;;;;;;5086366;28;19908;-73
2022/03/10 11:43:29;;;;;;;;;;;20.50;59.40;;;;;;5087113;28;19916;-74
2022/03/10 11:46:14;;;;;;;;;;;20.70;58.50;;;;;;5087393;28;19916;-74
2022/03/10 11:48:39;;;;;;;;;;;20.70;58.60;;;;;;5087456;28;20246;-74
2022/03/10 11:51:08;;;;;;;;;;;20.50;58.00;;;;;;5087461;28;19912;-74
2022/03/10 11:53:56;;;;;;;;;;;20.30;58.40;;;;;;5080798;28;19916;-73
2022/03/10 11:56:40;;;;;;;;;;;20.20;58.70;;;;;;5086584;28;19912;-72
2022/03/10 11:59:24;;;;;;;;;;;20.10;58.70;;;;;;5085331;28;19920;-72
2022/03/10 12:01:50;;;;;;;;;;;19.80;57.70;;;;;;5084487;28;19919;-73
2022/03/10 12:04:22;;;;;;;;;;;19.70;58.00;;;;;;5079641;28;20007;-73
2022/03/10 12:06:57;;;;;;;;;;;19.90;58.40;;;;;;5080422;28;19996;-73
2022/03/10 12:09:29;;;;;;;;;;;20.10;58.70;;;;;;5083426;28;20320;-72
2022/03/10 12:12:20;;;;;;;;;;;20.40;59.00;;;;;;5082846;28;19920;-71
2022/03/10 12:14:47;;;;;;;;;;;20.20;57.40;;;;;;5084002;28;19920;-72
2022/03/10 12:17:31;;;;;;;;;;;19.30;56.80;;;;;;5088260;28;20266;-72
2022/03/10 12:20:12;;;;;;;;;;;18.70;57.00;;;;;;5083878;28;19912;-72
2022/03/10 12:22:37;;;;;;;;;;;18.50;58.40;;;;;;5082938;28;19916;-73
2022/03/10 12:25:20;;;;;;;;;;;18.60;58.40;;;;;;5085313;28;19908;-74
2022/03/10 12:27:49;;;;;;;;;;;18.80;59.10;;;;;;5089523;28;19957;-74
2022/03/10 12:30:18;;;;;;;;;;;19.10;58.40;;;;;;5089287;28;19908;-73
2022/03/10 12:32:45;;;;;;;;;;;19.00;58.00;;;;;;5089852;28;19996;-73
2022/03/10 12:35:11;;;;;;;;;;;18.90;57.70;;;;;;5088642;28;20252;-73
2022/03/10 12:37:37;;;;;;;;;;;18.60;57.50;;;;;;5081686;28;19909;-73
2022/03/10 12:40:02;;;;;;;;;;;18.30;57.70;;;;;;5089206;28;19915;-72
2022/03/10 12:42:31;;;;;;;;;;;17.90;57.50;;;;;;5088248;28;19908;-73
2022/03/10 12:44:57;;;;;;;;;;;17.50;57.80;;;;;;5089738;28;20010;-72
2022/03/10 12:47:23;;;;;;;;;;;17.30;58.70;;;;;;5090016;28;19916;-74
2022/03/10 12:49:50;;;;;;;;;;;17.10;58.80;;;;;;5090291;28;19916;-71
2022/03/10 12:52:17;;;;;;;;;;;17.00;58.90;;;;;;5087673;28;20540;-74
2022/03/10 12:54:44;;;;;;;;;;;16.90;59.40;;;;;;5089365;28;19912;-72
2022/03/10 12:57:10;;;;;;;;;;;16.90;60.40;;;;;;5089492;28;20010;-73
2022/03/10 12:59:36;;;;;;;;;;;17.20;61.10;;;;;;5089330;28;20297;-73
2022/03/10 13:02:12;;;;;;;;;;;18.00;61.40;;;;;;5087689;28;19963;-73
2022/03/10 13:04:48;;;;;;;;;;;18.60;61.50;;;;;;5084818;28;19916;-72
2022/03/10 13:07:15;;;;;;;;;;;19.10;60.90;;;;;;5086144;28;19916;-73
2022/03/10 13:09:41;;;;;;;;;;;19.40;60.00;;;;;;5089305;28;19916;-73
2022/03/10 13:12:08;;;;;;;;;;;19.20;58.20;;;;;;5089493;28;19947;-74
2022/03/10 13:14:39;;;;;;;;;;;19.20;59.20;;;;;;5089467;28;20508;-73
2022/03/10 13:17:04;;;;;;;;;;;19.20;59.70;;;;;;5085174;28;19965;-73
2022/03/10 13:19:36;;;;;;;;;;;19.20;60.30;;;;;;5081368;28;19913;-79
2022/03/10 13:22:03;;;;;;;;;;;19.30;59.80;;;;;;5088080;28;19994;-77
2022/03/10 13:24:33;;;;;;;;;;;19.20;60.50;;;;;;5087344;28;19915;-74
2022/03/10 13:27:02;;;;;;;;;;;18.90;60.80;;;;;;5078350;28;19983;-74
2022/03/10 13:29:27;;;;;;;;;;;18.80;60.20;;;;;;5084747;28;19916;-74
2022/03/10 13:31:53;;;;;;;;;;;18.90;60.50;;;;;;5088786;28;19955;-74
2022/03/10 13:34:19;;;;;;;;;;;19.10;60.40;;;;;;5088729;28;20394;-75
2022/03/10 13:36:46;;;;;;;;;;;19.20;60.50;;;;;;5083918;28;19909;-74
2022/03/10 13:39:11;;;;;;;;;;;19.00;60.00;;;;;;5085476;28;19920;-75
2022/03/10 13:41:37;;;;;;;;;;;18.60;60.30;;;;;;5089304;28;19972;-76
2022/03/10 13:44:17;;;;;;;;;;;18.30;60.00;;;;;;5087541;28;20447;-75
2022/03/10 13:46:43;;;;;;;;;;;18.20;59.60;;;;;;5088796;28;19908;-73
2022/03/10 13:49:22;;;;;;;;;;;17.90;59.40;;;;;;5087156;28;19920;-74
2022/03/10 13:51:48;;;;;;;;;;;17.80;59.60;;;;;;5086689;28;19927;-73
2022/03/10 13:54:15;;;;;;;;;;;17.60;59.00;;;;;;5087114;28;19926;-74
2022/03/10 13:56:42;;;;;;;;;;;17.20;58.40;;;;;;5088771;28;20566;-74
2022/03/10 13:59:11;;;;;;;;;;;16.80;58.90;;;;;;5088451;28;20053;-74
2022/03/10 14:01:39;;;;;;;;;;;16.60;58.90;;;;;;5088388;28;19919;-73
2022/03/10 14:04:09;;;;;;;;;;;16.60;58.90;;;;;;5088496;28;20414;-75
2022/03/10 14:06:44;;;;;;;;;;;16.40;58.30;;;;;;5087287;28;20011;-75
2022/03/10 14:09:20;;;;;;;;;;;16.20;58.00;;;;;;5086585;28;20374;-74
2022/03/10 14:11:46;;;;;;;;;;;15.90;57.50;;;;;;5089294;28;19928;-75
2022/03/10 14:14:12;;;;;;;;;;;15.50;57.30;;;;;;5089313;28;19913;-73
2022/03/10 14:16:48;;;;;;;;;;;15.30;57.80;;;;;;5084061;28;20312;-74
2022/03/10 14:19:34;;;;;;;;;;;14.90;58.00;;;;;;5080312;28;19916;-73
2022/03/10 14:22:00;;;;;;;;;;;14.70;58.10;;;;;;5082395;28;20370;-74
2022/03/10 14:24:27;;;;;;;;;;;14.40;58.60;;;;;;5082268;28;20025;-74
2022/03/10 14:26:53;;;;;;;;;;;14.30;58.80;;;;;;5086173;28;19930;-73
2022/03/10 14:29:20;;;;;;;;;;;14.20;59.00;;;;;;5087005;28;19916;-74